Time;durP1;ratioP1;P1;durP2;ratioP2;P2;SDS_P1;SDS_P2;PMS_P1;PMS_P2;Temp;Humidity;BMP_temperature;BMP_pressure;BME280_temperature;BME280_humidity;BME280_pressure;Samples;Min_cycle;Max_cycle;Signal;HPM_P1;HPM_P2
2023/01/27 00:01:31;;;;;;;14.80;9.82;;;;;;;;;;4989699;28;20026;-72
2023/01/27 00:03:57;;;;;;;15.90;10.68;;;;;;;;;;4986827;28;20034;-72
2023/01/27 00:06:23;;;;;;;20.27;12.75;;;;;;;;;;4986454;28;20034;-72
2023/01/27 00:08:48;;;;;;;21.27;13.75;;;;;;;;;;4991534;28;20030;-72
2023/01/27 00:13:58;;;;;;;24.20;14.73;;;;;;;;;;4980313;28;20109;-72
2023/01/27 00:16:24;;;;;;;21.27;13.10;;;;;;;;;;4979097;28;20483;-72
2023/01/27 00:18:50;;;;;;;21.35;12.75;;;;;;;;;;4994841;28;20042;-72
2023/01/27 00:26:44;;;;;;;20.27;13.18;;;;;;;;;;4999078;28;20046;-72
2023/01/27 00:29:11;;;;;;;21.10;13.07;;;;;;;;;;4998628;28;20022;-72
2023/01/27 00:34:21;;;;;;;16.75;11.63;;;;;;;;;;5003516;28;20038;-72
2023/01/27 00:36:46;;;;;;;19.15;12.48;;;;;;;;;;5001847;28;20416;-72
2023/01/27 00:39:12;;;;;;;18.15;11.60;;;;;;;;;;5000406;28;20530;-73
2023/01/27 00:41:39;;;;;;;15.95;11.32;;;;;;;;;;4998979;28;20014;-72
2023/01/27 00:44:06;;;;;;;15.88;11.10;;;;;;;;;;4994110;28;20032;-73
2023/01/27 00:46:33;;;;;;;18.23;11.88;;;;;;;;;;4992296;28;20022;-72
2023/01/27 00:48:59;;;;;;;16.20;10.32;;;;;;;;;;4992304;28;20481;-72
2023/01/27 00:51:26;;;;;;;15.35;10.30;;;;;;;;;;4975823;28;20122;-71
2023/01/27 00:53:52;;;;;;;13.93;9.35;;;;;;;;;;4992642;28;20184;-72
2023/01/27 00:56:18;;;;;;;16.60;10.48;;;;;;;;;;4975900;28;20077;-73
2023/01/27 00:58:43;;;;;;;15.73;10.88;;;;;;;;;;4988368;28;20105;-72
2023/01/27 01:01:12;;;;;;;18.55;12.43;;;;;;;;;;4992933;28;20023;-73
2023/01/27 01:03:38;;;;;;;17.27;11.07;;;;;;;;;;4993123;28;20250;-72
2023/01/27 01:06:07;;;;;;;21.38;13.13;;;;;;;;;;4993412;28;20037;-73
2023/01/27 01:08:35;;;;;;;19.13;12.50;;;;;;;;;;4993024;28;20040;-73
2023/01/27 01:11:02;;;;;;;21.98;14.80;;;;;;;;;;4992795;28;20018;-72
2023/01/27 01:13:28;;;;;;;22.65;13.35;;;;;;;;;;4992055;28;20065;-72
2023/01/27 01:15:54;;;;;;;24.17;13.93;;;;;;;;;;4992690;28;20053;-72
2023/01/27 01:18:20;;;;;;;24.15;13.60;;;;;;;;;;4976868;28;20038;-73
2023/01/27 01:20:46;;;;;;;26.48;14.80;;;;;;;;;;4992665;28;20066;-72
2023/01/27 01:23:13;;;;;;;23.15;14.00;;;;;;;;;;4991728;28;20503;-72
2023/01/27 01:25:41;;;;;;;22.27;13.73;;;;;;;;;;4974870;28;20034;-71
2023/01/27 01:28:07;;;;;;;23.15;13.30;;;;;;;;;;4989427;28;20030;-72
2023/01/27 01:30:34;;;;;;;21.48;12.48;;;;;;;;;;4975205;28;20258;-71
2023/01/27 01:33:02;;;;;;;22.45;13.15;;;;;;;;;;4992703;28;20128;-72
2023/01/27 01:35:29;;;;;;;23.08;13.02;;;;;;;;;;4992009;28;20030;-72
2023/01/27 01:37:54;;;;;;;21.17;13.07;;;;;;;;;;4989026;28;20066;-71
2023/01/27 01:40:21;;;;;;;20.40;12.52;;;;;;;;;;4992317;28;20287;-71
2023/01/27 01:43:01;;;;;;;21.65;12.82;;;;;;;;;;4988219;28;20382;-71
2023/01/27 01:45:32;;;;;;;24.50;14.15;;;;;;;;;;4977305;28;20045;-71
2023/01/27 01:48:02;;;;;;;22.92;14.18;;;;;;;;;;4990757;28;20039;-72
2023/01/27 01:50:28;;;;;;;23.30;13.32;;;;;;;;;;4992101;28;20507;-72
2023/01/27 01:52:57;;;;;;;27.10;15.80;;;;;;;;;;4990315;28;20443;-72
2023/01/27 01:55:23;;;;;;;23.85;14.23;;;;;;;;;;4988846;28;20065;-72
2023/01/27 01:57:49;;;;;;;21.70;12.38;;;;;;;;;;4995848;28;20076;-71
2023/01/27 02:00:15;;;;;;;17.17;10.50;;;;;;;;;;4998763;28;20026;-71
2023/01/27 02:02:47;;;;;;;14.88;9.95;;;;;;;;;;4974905;28;20233;-71
2023/01/27 02:05:19;;;;;;;17.20;9.25;;;;;;;;;;4992862;28;20462;-71
2023/01/27 02:07:56;;;;;;;13.05;8.80;;;;;;;;;;4993152;28;20065;-72
2023/01/27 02:10:23;;;;;;;11.80;7.72;;;;;;;;;;4970889;28;20034;-72
2023/01/27 02:12:49;;;;;;;10.95;7.50;;;;;;;;;;4994859;28;20571;-72
2023/01/27 02:15:15;;;;;;;12.55;8.50;;;;;;;;;;4982128;28;20047;-71
2023/01/27 02:17:42;;;;;;;11.88;8.63;;;;;;;;;;4986313;28;20077;-71
2023/01/27 02:20:36;;;;;;;14.70;8.75;;;;;;;;;;4993780;28;20544;-72
2023/01/27 02:23:05;;;;;;;13.25;8.40;;;;;;;;;;5008170;28;20046;-71
2023/01/27 02:25:34;;;;;;;18.10;9.00;;;;;;;;;;4989429;28;20058;-72
2023/01/27 02:28:01;;;;;;;15.70;8.38;;;;;;;;;;4990346;28;20034;-73
2023/01/27 02:30:27;;;;;;;13.48;8.65;;;;;;;;;;4992946;28;20027;-75
2023/01/27 02:32:53;;;;;;;16.08;9.43;;;;;;;;;;4976968;28;20121;-73
2023/01/27 02:35:29;;;;;;;13.98;9.32;;;;;;;;;;4981875;28;20084;-72
2023/01/27 02:37:56;;;;;;;16.35;9.52;;;;;;;;;;4994149;28;20534;-75
2023/01/27 02:40:24;;;;;;;16.17;10.45;;;;;;;;;;4980451;28;20053;-72
2023/01/27 02:42:55;;;;;;;19.67;10.23;;;;;;;;;;4990211;28;20518;-71
2023/01/27 02:45:21;;;;;;;18.08;10.02;;;;;;;;;;4976097;28;20026;-71
2023/01/27 02:47:46;;;;;;;18.45;10.75;;;;;;;;;;4975844;28;20034;-72
2023/01/27 02:50:12;;;;;;;16.02;10.15;;;;;;;;;;4981001;28;20069;-71
2023/01/27 02:52:39;;;;;;;15.35;9.30;;;;;;;;;;4993252;28;20018;-72
2023/01/27 02:55:05;;;;;;;11.25;6.50;;;;;;;;;;4994523;28;20511;-71
2023/01/27 02:57:31;;;;;;;11.15;6.80;;;;;;;;;;4972533;28;20033;-72
2023/01/27 03:00:17;;;;;;;11.32;7.22;;;;;;;;;;4971208;28;20034;-72
2023/01/27 03:02:43;;;;;;;9.00;6.75;;;;;;;;;;4973764;28;20031;-71
2023/01/27 03:05:08;;;;;;;12.02;7.32;;;;;;;;;;4977122;28;20049;-72
2023/01/27 03:07:34;;;;;;;12.00;7.65;;;;;;;;;;4990212;28;20034;-71
2023/01/27 03:10:00;;;;;;;10.77;7.22;;;;;;;;;;4976945;28;20022;-72
2023/01/27 03:12:28;;;;;;;12.35;7.13;;;;;;;;;;4990018;28;20030;-71
2023/01/27 03:20:22;;;;;;;23.80;7.38;;;;;;;;;;4990362;28;20034;-71
2023/01/27 03:22:49;;;;;;;12.38;6.97;;;;;;;;;;4974637;28;20030;-71
2023/01/27 03:25:15;;;;;;;11.88;6.60;;;;;;;;;;4977286;28;20217;-71
2023/01/27 03:27:42;;;;;;;11.50;6.93;;;;;;;;;;4989639;28;20044;-71
2023/01/27 03:30:36;;;;;;;13.77;7.60;;;;;;;;;;4971415;28;20050;-71
2023/01/27 03:33:14;;;;;;;17.17;7.53;;;;;;;;;;4980485;28;20124;-70
2023/01/27 03:46:56;;;;;;;15.63;8.55;;;;;;;;;;4993272;28;20036;-72
2023/01/27 03:49:22;;;;;;;21.95;9.90;;;;;;;;;;4988620;28;20547;-71
2023/01/27 03:51:48;;;;;;;24.70;10.27;;;;;;;;;;4991862;28;20038;-71
2023/01/27 03:54:13;;;;;;;17.30;9.45;;;;;;;;;;4994973;28;20395;-71
2023/01/27 03:56:39;;;;;;;23.52;10.50;;;;;;;;;;4994970;28;20046;-71
2023/01/27 03:59:05;;;;;;;21.45;12.20;;;;;;;;;;4994751;28;20025;-71
2023/01/27 04:01:31;;;;;;;19.25;10.23;;;;;;;;;;4994596;28;20042;-72
2023/01/27 04:06:54;;;;;;;16.08;10.68;;;;;;;;;;4993985;28;20065;-71
2023/01/27 04:09:21;;;;;;;22.77;11.93;;;;;;;;;;4991108;28;20026;-72
2023/01/27 04:11:59;;;;;;;23.75;12.35;;;;;;;;;;4986596;28;20396;-71
2023/01/27 04:14:26;;;;;;;19.45;11.55;;;;;;;;;;4986053;28;20037;-71
2023/01/27 04:16:55;;;;;;;17.60;10.73;;;;;;;;;;4991995;28;20419;-71
2023/01/27 04:19:21;;;;;;;18.25;12.05;;;;;;;;;;4986536;28;20027;-72
2023/01/27 04:21:47;;;;;;;16.58;10.20;;;;;;;;;;4993445;28;20479;-73
2023/01/27 04:24:22;;;;;;;15.95;10.52;;;;;;;;;;4986129;28;20066;-71
2023/01/27 04:26:56;;;;;;;17.83;11.88;;;;;;;;;;4993820;28;20480;-71
2023/01/27 04:29:23;;;;;;;;;;;;;;;;;;4994944;28;20404;-71
2023/01/27 04:31:49;;;;;;;21.58;12.10;;;;;;;;;;4993247;28;19909;-72
2023/01/27 04:34:15;;;;;;;26.25;14.05;;;;;;;;;;4993986;28;20030;-71
2023/01/27 04:36:41;;;;;;;20.52;13.30;;;;;;;;;;4994225;28;20539;-71
2023/01/27 04:39:10;;;;;;;28.98;14.23;;;;;;;;;;4994206;28;20094;-70
2023/01/27 04:41:36;;;;;;;24.65;15.05;;;;;;;;;;4987070;28;20046;-72
2023/01/27 04:44:04;;;;;;;26.55;14.98;;;;;;;;;;4974057;28;20396;-72
2023/01/27 04:46:30;;;;;;;26.20;15.60;;;;;;;;;;4988335;28;20525;-71
2023/01/27 04:48:56;;;;;;;26.08;14.52;;;;;;;;;;4994141;28;20403;-71
2023/01/27 04:51:22;;;;;;;24.95;15.30;;;;;;;;;;4993558;28;20014;-70
2023/01/27 04:53:49;;;;;;;26.63;16.70;;;;;;;;;;4993400;28;20038;-71
2023/01/27 04:56:23;;;;;;;26.20;15.18;;;;;;;;;;4993406;28;20380;-71
2023/01/27 04:58:50;;;;;;;28.80;16.75;;;;;;;;;;4992666;28;20038;-71
2023/01/27 05:01:16;;;;;;;25.08;14.85;;;;;;;;;;4990126;28;20018;-72
2023/01/27 05:03:42;;;;;;;29.88;16.60;;;;;;;;;;4993423;28;20189;-72
2023/01/27 05:06:09;;;;;;;31.25;16.88;;;;;;;;;;4990860;28;20055;-71
2023/01/27 05:08:37;;;;;;;27.40;15.50;;;;;;;;;;4988646;28;20030;-72
2023/01/27 05:11:03;;;;;;;30.33;17.10;;;;;;;;;;4990546;28;20026;-71
2023/01/27 05:13:29;;;;;;;27.75;16.83;;;;;;;;;;4987734;28;20026;-71
2023/01/27 05:16:15;;;;;;;29.75;17.40;;;;;;;;;;4991846;28;20031;-71
2023/01/27 05:18:42;;;;;;;27.98;16.13;;;;;;;;;;4989025;28;20038;-71
2023/01/27 05:21:12;;;;;;;24.60;14.50;;;;;;;;;;4992641;28;20022;-72
2023/01/27 05:23:38;;;;;;;28.77;16.05;;;;;;;;;;4992832;28;20407;-72
2023/01/27 05:26:15;;;;;;;26.25;14.90;;;;;;;;;;4992787;28;20133;-71
2023/01/27 05:28:43;;;;;;;22.02;13.88;;;;;;;;;;4992568;28;20037;-71
2023/01/27 05:31:17;;;;;;;24.83;13.88;;;;;;;;;;4984468;28;20022;-72
2023/01/27 05:33:44;;;;;;;33.33;16.08;;;;;;;;;;4992386;28;20392;-70
2023/01/27 05:36:12;;;;;;;20.10;12.40;;;;;;;;;;4992579;28;20105;-73
2023/01/27 05:38:38;;;;;;;23.20;15.15;;;;;;;;;;4984509;28;20034;-71
2023/01/27 05:41:06;;;;;;;27.10;15.30;;;;;;;;;;4973593;28;20034;-72
2023/01/27 05:43:34;;;;;;;30.35;18.20;;;;;;;;;;4992430;28;20073;-71
2023/01/27 05:46:07;;;;;;;28.45;16.58;;;;;;;;;;4991455;28;20022;-71
2023/01/27 05:48:35;;;;;;;28.70;16.80;;;;;;;;;;4992521;28;20065;-73
2023/01/27 05:51:01;;;;;;;29.77;16.45;;;;;;;;;;4992484;28;20439;-72
2023/01/27 05:53:28;;;;;;;27.98;15.68;;;;;;;;;;4992499;28;20054;-72
2023/01/27 05:55:54;;;;;;;23.90;14.77;;;;;;;;;;4992381;28;20030;-71
2023/01/27 05:58:20;;;;;;;26.63;15.25;;;;;;;;;;4992252;28;20030;-71
2023/01/27 06:00:46;;;;;;;23.50;14.32;;;;;;;;;;4991773;28;20361;-72
2023/01/27 06:03:12;;;;;;;27.67;17.10;;;;;;;;;;4984021;28;20038;-72
2023/01/27 06:05:38;;;;;;;27.30;15.80;;;;;;;;;;4991884;28;20033;-71
2023/01/27 06:08:04;;;;;;;21.30;13.93;;;;;;;;;;4992317;28;20033;-72
2023/01/27 06:10:30;;;;;;;23.67;13.88;;;;;;;;;;4992061;28;20092;-71
2023/01/27 06:12:57;;;;;;;26.35;15.48;;;;;;;;;;4983028;28;20046;-70
2023/01/27 06:15:23;;;;;;;29.20;17.00;;;;;;;;;;4991939;28;20022;-72
2023/01/27 06:17:49;;;;;;;27.50;16.48;;;;;;;;;;4991758;28;20030;-72
2023/01/27 06:20:14;;;;;;;27.65;15.07;;;;;;;;;;4990555;28;20022;-72
2023/01/27 06:22:40;;;;;;;24.75;15.10;;;;;;;;;;4981904;28;20065;-72
2023/01/27 06:25:07;;;;;;;25.77;15.90;;;;;;;;;;4991621;28;20105;-72
2023/01/27 06:27:32;;;;;;;28.75;14.63;;;;;;;;;;4991889;28;20026;-72
2023/01/27 06:29:58;;;;;;;25.58;15.43;;;;;;;;;;4988347;28;20357;-72
2023/01/27 06:32:24;;;;;;;23.33;13.82;;;;;;;;;;4991645;28;20106;-71
2023/01/27 06:34:49;;;;;;;22.38;14.02;;;;;;;;;;4991750;28;20049;-71
2023/01/27 06:37:15;;;;;;;22.73;13.77;;;;;;;;;;4991917;28;20033;-72
2023/01/27 06:39:41;;;;;;;22.50;13.80;;;;;;;;;;4991536;28;20022;-71
2023/01/27 06:42:08;;;;;;;23.60;14.50;;;;;;;;;;4973834;28;20034;-72
2023/01/27 06:44:34;;;;;;;26.63;16.58;;;;;;;;;;4991193;28;20033;-74
2023/01/27 06:46:59;;;;;;;22.65;14.90;;;;;;;;;;4989494;28;20058;-72
2023/01/27 06:49:25;;;;;;;26.42;16.00;;;;;;;;;;4985559;28;20026;-72
2023/01/27 06:51:51;;;;;;;25.02;15.93;;;;;;;;;;4995561;28;20049;-72
2023/01/27 06:54:16;;;;;;;27.25;17.27;;;;;;;;;;4995688;28;20519;-72
2023/01/27 06:56:42;;;;;;;31.17;16.88;;;;;;;;;;4995387;28;20050;-71
2023/01/27 06:59:08;;;;;;;28.73;16.20;;;;;;;;;;4987901;28;20052;-71
2023/01/27 07:01:34;;;;;;;28.73;17.23;;;;;;;;;;4995174;28;20030;-72
2023/01/27 07:04:00;;;;;;;29.23;16.40;;;;;;;;;;4993572;28;20030;-73
2023/01/27 07:06:26;;;;;;;28.23;17.30;;;;;;;;;;4995324;28;20061;-72
2023/01/27 07:08:51;;;;;;;25.05;16.25;;;;;;;;;;4995210;28;20443;-72
2023/01/27 07:11:17;;;;;;;33.67;18.48;;;;;;;;;;4993898;28;20511;-72
2023/01/27 07:13:43;;;;;;;34.90;21.13;;;;;;;;;;4990096;28;20038;-73
2023/01/27 07:16:09;;;;;;;36.97;22.70;;;;;;;;;;4979526;28;20043;-74
2023/01/27 07:18:34;;;;;;;35.97;21.40;;;;;;;;;;4983040;28;20478;-71
2023/01/27 07:21:03;;;;;;;31.38;18.83;;;;;;;;;;4995623;28;20046;-71
2023/01/27 07:23:29;;;;;;;33.15;18.58;;;;;;;;;;4994527;28;20069;-73
2023/01/27 07:25:55;;;;;;;29.98;17.90;;;;;;;;;;4985735;28;20065;-73
2023/01/27 07:28:23;;;;;;;31.52;18.30;;;;;;;;;;4990653;28;20022;-74
2023/01/27 07:30:49;;;;;;;32.33;17.00;;;;;;;;;;4987460;28;20037;-74
2023/01/27 07:33:15;;;;;;;27.85;16.70;;;;;;;;;;4971549;28;20388;-74
2023/01/27 07:35:41;;;;;;;28.95;16.13;;;;;;;;;;4986641;28;20142;-74
2023/01/27 07:38:08;;;;;;;23.70;14.60;;;;;;;;;;4989359;28;20196;-74
2023/01/27 07:40:34;;;;;;;26.25;14.90;;;;;;;;;;4984583;28;20117;-74
2023/01/27 07:43:01;;;;;;;22.55;13.70;;;;;;;;;;4986787;28;20054;-75
2023/01/27 07:45:28;;;;;;;28.98;15.38;;;;;;;;;;4973004;28;20185;-74
2023/01/27 07:48:00;;;;;;;22.27;14.25;;;;;;;;;;4988258;28;20066;-73
2023/01/27 07:50:26;;;;;;;26.95;14.35;;;;;;;;;;4988065;28;20065;-74
2023/01/27 07:52:51;;;;;;;23.25;13.45;;;;;;;;;;4981058;28;20061;-72
2023/01/27 07:55:17;;;;;;;24.30;14.25;;;;;;;;;;4986271;28;20085;-74
2023/01/27 07:57:43;;;;;;;23.25;12.85;;;;;;;;;;4986594;28;20054;-72
2023/01/27 08:00:14;;;;;;;25.92;13.50;;;;;;;;;;4993192;28;20038;-73
2023/01/27 08:02:40;;;;;;;25.20;15.55;;;;;;;;;;4992470;28;20093;-72
2023/01/27 08:05:07;;;;;;;32.53;13.38;;;;;;;;;;4991186;28;20030;-73
2023/01/27 08:07:36;;;;;;;26.55;12.60;;;;;;;;;;4990327;28;20030;-73
2023/01/27 08:10:03;;;;;;;30.42;12.00;;;;;;;;;;4993140;28;20144;-73
2023/01/27 08:12:29;;;;;;;29.27;11.20;;;;;;;;;;4994425;28;20030;-73
2023/01/27 08:14:56;;;;;;;25.25;10.18;;;;;;;;;;4992259;28;20022;-73
2023/01/27 08:17:22;;;;;;;32.65;10.57;;;;;;;;;;4992937;28;20049;-73
2023/01/27 08:19:50;;;;;;;24.73;10.88;;;;;;;;;;4984616;28;20034;-75
2023/01/27 08:22:20;;;;;;;20.50;11.15;;;;;;;;;;4988657;28;20332;-76
2023/01/27 08:24:46;;;;;;;19.17;9.68;;;;;;;;;;4987537;28;20072;-73
2023/01/27 08:27:12;;;;;;;38.60;12.02;;;;;;;;;;4992758;28;20026;-75
2023/01/27 08:29:38;;;;;;;30.73;12.23;;;;;;;;;;4992316;28;20357;-75
2023/01/27 08:32:05;;;;;;;43.22;11.93;;;;;;;;;;4991783;28;20037;-75
2023/01/27 08:34:32;;;;;;;24.85;10.85;;;;;;;;;;4991389;28;20034;-73
2023/01/27 08:36:58;;;;;;;33.83;11.65;;;;;;;;;;4972441;28;20113;-75
2023/01/27 08:39:23;;;;;;;45.15;14.07;;;;;;;;;;4991015;28;20109;-75
2023/01/27 08:41:49;;;;;;;56.38;11.88;;;;;;;;;;4993427;28;20039;-74
2023/01/27 08:44:15;;;;;;;32.30;8.95;;;;;;;;;;4975487;28;20180;-72
2023/01/27 08:46:41;;;;;;;24.17;8.73;;;;;;;;;;4993080;28;20038;-75
2023/01/27 08:49:08;;;;;;;42.88;11.80;;;;;;;;;;4974984;28;20038;-77
2023/01/27 08:51:33;;;;;;;34.80;12.75;;;;;;;;;;4988318;28;20033;-73
2023/01/27 08:53:59;;;;;;;20.52;8.40;;;;;;;;;;4990953;28;20023;-76
2023/01/27 08:56:25;;;;;;;28.02;8.60;;;;;;;;;;4990307;28;20034;-75
2023/01/27 08:58:51;;;;;;;20.77;8.73;;;;;;;;;;4988703;28;20037;-75
2023/01/27 09:01:19;;;;;;;44.03;11.75;;;;;;;;;;4990740;28;20125;-75
2023/01/27 09:03:45;;;;;;;39.25;12.60;;;;;;;;;;4991915;28;20447;-76
2023/01/27 09:06:12;;;;;;;21.13;8.13;;;;;;;;;;4984928;28;20042;-76
2023/01/27 09:08:39;;;;;;;25.67;8.50;;;;;;;;;;4983445;28;20031;-76
2023/01/27 09:11:16;;;;;;;34.45;10.50;;;;;;;;;;4991937;28;20073;-75
2023/01/27 09:13:42;;;;;;;26.15;9.82;;;;;;;;;;4995689;28;20100;-74
2023/01/27 09:16:08;;;;;;;52.10;11.48;;;;;;;;;;4992950;28;20061;-75
2023/01/27 09:18:34;;;;;;;79.72;15.30;;;;;;;;;;4991814;28;20085;-75
2023/01/27 09:21:04;;;;;;;55.33;12.98;;;;;;;;;;4988281;28;20030;-75
2023/01/27 09:23:30;;;;;;;54.60;12.80;;;;;;;;;;4976637;28;20110;-77
2023/01/27 09:25:56;;;;;;;36.58;11.20;;;;;;;;;;4988816;28;20376;-74
2023/01/27 09:28:22;;;;;;;17.90;11.57;;;;;;;;;;4990841;28;20030;-75
2023/01/27 09:30:48;;;;;;;17.80;11.93;;;;;;;;;;4990200;28;20556;-76
2023/01/27 09:33:14;;;;;;;24.45;12.30;;;;;;;;;;4989079;28;20424;-74
2023/01/27 09:35:51;;;;;;;30.15;11.35;;;;;;;;;;4991053;28;20026;-75
2023/01/27 09:38:20;;;;;;;40.63;11.80;;;;;;;;;;4966596;28;20034;-74
2023/01/27 09:41:05;;;;;;;53.60;12.48;;;;;;;;;;4991933;28;20070;-73
2023/01/27 09:43:44;;;;;;;42.65;13.23;;;;;;;;;;4991063;28;20057;-73
2023/01/27 09:46:47;;;;;;;51.47;14.13;;;;;;;;;;4992615;28;20040;-73
2023/01/27 09:49:20;;;;;;;46.50;13.45;;;;;;;;;;4984546;28;20472;-73
2023/01/27 09:52:13;;;;;;;25.38;10.85;;;;;;;;;;4984181;28;20081;-73
2023/01/27 09:54:47;;;;;;;21.50;10.40;;;;;;;;;;4991095;28;20034;-74
2023/01/27 09:57:36;;;;;;;32.70;11.45;;;;;;;;;;4992303;28;20026;-73
2023/01/27 10:00:10;;;;;;;29.77;12.35;;;;;;;;;;4991910;28;20049;-74
2023/01/27 10:03:03;;;;;;;29.23;11.75;;;;;;;;;;4991897;28;20053;-73
2023/01/27 10:05:32;;;;;;;29.75;10.63;;;;;;;;;;4992942;28;20057;-73
2023/01/27 10:08:25;;;;;;;26.63;9.88;;;;;;;;;;4992183;28;20403;-74
2023/01/27 10:11:07;;;;;;;21.52;9.40;;;;;;;;;;4992743;28;20045;-71
2023/01/27 10:13:53;;;;;;;62.33;12.35;;;;;;;;;;4992439;28;20034;-72
2023/01/27 10:16:44;;;;;;;26.75;10.25;;;;;;;;;;4988340;28;20069;-74
2023/01/27 10:19:24;;;;;;;42.60;11.80;;;;;;;;;;4990632;28;20126;-72
2023/01/27 10:22:22;;;;;;;29.15;10.38;;;;;;;;;;4992141;28;20031;-73
2023/01/27 10:25:29;;;;;;;21.05;7.88;;;;;;;;;;4974203;28;20042;-73
2023/01/27 10:27:57;;;;;;;30.33;9.27;;;;;;;;;;4970114;28;20159;-73
2023/01/27 10:30:33;;;;;;;24.13;8.32;;;;;;;;;;4969798;28;20099;-75
2023/01/27 10:33:20;;;;;;;24.63;8.15;;;;;;;;;;4982890;28;20093;-73
2023/01/27 10:35:55;;;;;;;12.68;7.07;;;;;;;;;;4991375;28;20353;-72
2023/01/27 10:38:33;;;;;;;27.02;9.02;;;;;;;;;;4992655;28;20101;-73
2023/01/27 10:41:14;;;;;;;15.52;7.45;;;;;;;;;;4991849;28;20057;-73
2023/01/27 10:44:18;;;;;;;57.10;11.32;;;;;;;;;;4991824;28;20114;-71
2023/01/27 10:47:22;;;;;;;15.85;7.75;;;;;;;;;;5006511;28;20054;-72
2023/01/27 10:49:54;;;;;;;49.97;9.30;;;;;;;;;;5006596;28;20073;-73
2023/01/27 10:52:47;;;;;;;21.58;7.55;;;;;;;;;;4990596;28;20039;-73
2023/01/27 10:55:24;;;;;;;21.02;7.95;;;;;;;;;;5006630;28;20088;-73
2023/01/27 10:58:19;;;;;;;18.38;7.50;;;;;;;;;;4991207;28;20496;-73
2023/01/27 11:00:49;;;;;;;24.13;9.32;;;;;;;;;;4989765;28;20054;-73
2023/01/27 11:03:24;;;;;;;19.45;9.30;;;;;;;;;;4988728;28;20031;-72
2023/01/27 11:05:52;;;;;;;16.80;9.20;;;;;;;;;;5005841;28;20576;-74
2023/01/27 11:08:25;;;;;;;20.73;9.40;;;;;;;;;;4990283;28;20026;-72
2023/01/27 11:13:40;;;;;;;18.70;11.00;;;;;;;;;;4990408;28;20101;-72
2023/01/27 11:16:16;;;;;;;33.53;11.93;;;;;;;;;;4991287;28;20487;-72
2023/01/27 11:18:45;;;;;;;15.00;9.77;;;;;;;;;;4991238;28;20133;-72
2023/01/27 11:21:17;;;;;;;17.48;9.02;;;;;;;;;;4990945;28;20465;-74
2023/01/27 11:23:47;;;;;;;15.80;7.93;;;;;;;;;;4990602;28;20069;-72
2023/01/27 11:26:47;;;;;;;20.00;9.32;;;;;;;;;;4988963;28;20046;-72
2023/01/27 11:29:18;;;;;;;12.48;7.28;;;;;;;;;;4991437;28;20117;-72
2023/01/27 11:31:56;;;;;;;10.27;6.78;;;;;;;;;;4991680;28;20416;-73
2023/01/27 11:34:26;;;;;;;10.93;6.50;;;;;;;;;;4991047;28;20027;-73
2023/01/27 11:36:52;;;;;;;21.13;8.15;;;;;;;;;;4991766;28;20042;-72
2023/01/27 11:39:18;;;;;;;12.60;6.78;;;;;;;;;;4992222;28;20026;-74
2023/01/27 11:41:52;;;;;;;22.30;8.98;;;;;;;;;;4994229;28;20461;-73
2023/01/27 11:44:21;;;;;;;17.27;9.38;;;;;;;;;;4977519;28;20034;-73
2023/01/27 11:46:47;;;;;;;19.48;8.80;;;;;;;;;;4994686;28;20097;-73
2023/01/27 11:49:40;;;;;;;15.05;6.78;;;;;;;;;;4994881;28;20038;-72
2023/01/27 11:52:16;;;;;;;29.08;7.80;;;;;;;;;;4988073;28;20045;-73
2023/01/27 11:54:58;;;;;;;18.45;7.30;;;;;;;;;;4993590;28;20062;-74
2023/01/27 11:57:26;;;;;;;18.42;7.40;;;;;;;;;;4987304;28;20476;-73
2023/01/27 12:00:00;;;;;;;15.40;7.97;;;;;;;;;;4994281;28;20030;-73
2023/01/27 12:02:34;;;;;;;11.23;7.72;;;;;;;;;;4993975;28;20045;-74
2023/01/27 12:05:06;;;;;;;19.30;10.00;;;;;;;;;;4993848;28;20038;-74
2023/01/27 12:07:51;;;;;;;16.50;8.13;;;;;;;;;;4997678;28;20038;-73
2023/01/27 12:10:40;;;;;;;19.52;9.25;;;;;;;;;;4997947;28;20428;-77
2023/01/27 12:13:24;;;;;;;23.85;9.30;;;;;;;;;;4996701;28;20043;-71
2023/01/27 12:15:51;;;;;;;15.40;8.57;;;;;;;;;;4994027;28;20626;-73
2023/01/27 12:18:17;;;;;;;20.65;8.95;;;;;;;;;;4992972;28;20062;-73
2023/01/27 12:20:50;;;;;;;19.02;8.15;;;;;;;;;;4998683;28;20205;-73
2023/01/27 12:23:22;;;;;;;17.25;8.43;;;;;;;;;;4993976;28;20032;-72
2023/01/27 12:25:56;;;;;;;10.20;6.87;;;;;;;;;;4993420;28;20514;-73
2023/01/27 12:28:32;;;;;;;12.13;7.35;;;;;;;;;;4993655;28;20169;-73
2023/01/27 12:31:24;;;;;;;14.05;7.57;;;;;;;;;;4986397;28;20023;-72
2023/01/27 12:34:07;;;;;;;16.08;8.38;;;;;;;;;;4989864;28;20489;-74
2023/01/27 12:36:39;;;;;;;18.13;9.52;;;;;;;;;;4993251;28;20049;-74
2023/01/27 12:39:06;;;;;;;21.48;9.45;;;;;;;;;;4991770;28;20531;-73
2023/01/27 12:41:35;;;;;;;16.45;9.10;;;;;;;;;;4992957;28;20033;-72
2023/01/27 12:44:15;;;;;;;17.52;9.57;;;;;;;;;;4993256;28;20052;-73
2023/01/27 12:47:16;;;;;;;34.22;14.75;;;;;;;;;;4993770;28;20034;-72
2023/01/27 12:49:43;;;;;;;17.80;10.30;;;;;;;;;;4993323;28;20042;-73
2023/01/27 12:52:18;;;;;;;34.92;12.77;;;;;;;;;;4993318;28;20022;-73
2023/01/27 12:54:43;;;;;;;32.53;11.98;;;;;;;;;;4976062;28;20057;-73
2023/01/27 12:57:19;;;;;;;24.52;11.75;;;;;;;;;;4993746;28;20026;-71
2023/01/27 12:59:57;;;;;;;16.92;9.93;;;;;;;;;;4993723;28;20057;-73
2023/01/27 13:02:26;;;;;;;19.55;11.15;;;;;;;;;;4993673;28;20034;-72
2023/01/27 13:04:56;;;;;;;23.27;12.55;;;;;;;;;;4993371;28;20482;-71
2023/01/27 13:07:26;;;;;;;44.50;12.13;;;;;;;;;;4991935;28;20034;-71
2023/01/27 13:09:59;;;;;;;32.72;12.25;;;;;;;;;;4975529;28;20046;-73
2023/01/27 13:12:28;;;;;;;23.33;9.75;;;;;;;;;;4993530;28;20046;-72
2023/01/27 13:14:57;;;;;;;35.88;10.13;;;;;;;;;;4993139;28;20060;-71
2023/01/27 13:17:36;;;;;;;12.13;7.70;;;;;;;;;;4993188;28;20034;-71
2023/01/27 13:20:43;;;;;;;15.30;7.40;;;;;;;;;;4993261;28;20484;-72
2023/01/27 13:23:14;;;;;;;17.85;7.97;;;;;;;;;;4992626;28;20128;-72
2023/01/27 13:26:12;;;;;;;23.52;7.45;;;;;;;;;;4992885;28;20546;-71
2023/01/27 13:28:43;;;;;;;23.25;8.80;;;;;;;;;;4989084;28;20121;-72
2023/01/27 13:31:15;;;;;;;18.38;8.15;;;;;;;;;;4992171;28;20444;-72
2023/01/27 13:33:47;;;;;;;23.50;10.70;;;;;;;;;;4987211;28;20043;-72
2023/01/27 13:36:40;;;;;;;32.42;15.75;;;;;;;;;;4974073;28;20045;-72
2023/01/27 13:39:17;;;;;;;24.02;9.27;;;;;;;;;;4992032;28;20030;-72
2023/01/27 13:42:07;;;;;;;31.23;11.48;;;;;;;;;;4991668;28;20129;-72
2023/01/27 13:44:33;;;;;;;17.58;11.30;;;;;;;;;;4991742;28;20049;-72
2023/01/27 13:47:05;;;;;;;17.60;11.30;;;;;;;;;;4974566;28;20026;-72
2023/01/27 13:50:00;;;;;;;20.05;11.23;;;;;;;;;;4991982;28;20084;-73
2023/01/27 13:52:27;;;;;;;20.00;11.48;;;;;;;;;;4990814;28;20061;-72
2023/01/27 13:54:53;;;;;;;17.67;11.32;;;;;;;;;;4991367;28;20033;-72
2023/01/27 13:57:49;;;;;;;20.73;11.10;;;;;;;;;;4996038;28;20026;-72
2023/01/27 14:00:18;;;;;;;28.70;11.32;;;;;;;;;;4989994;28;20177;-73
2023/01/27 14:03:06;;;;;;;20.13;10.75;;;;;;;;;;4991136;28;20121;-72
2023/01/27 14:06:01;;;;;;;21.35;10.63;;;;;;;;;;4991923;28;20042;-73
2023/01/27 14:08:44;;;;;;;25.05;11.35;;;;;;;;;;4991594;28;20050;-74
2023/01/27 14:11:09;;;;;;;16.77;10.23;;;;;;;;;;5007535;28;20377;-73
2023/01/27 14:13:50;;;;;;;15.90;11.07;;;;;;;;;;4992851;28;20153;-72
2023/01/27 14:16:31;;;;;;;31.75;15.60;;;;;;;;;;4992626;28;20160;-71
2023/01/27 14:19:17;;;;;;;38.53;15.10;;;;;;;;;;5007795;28;20173;-72
2023/01/27 14:21:51;;;;;;;31.13;15.25;;;;;;;;;;5007593;28;20108;-72
2023/01/27 14:24:58;;;;;;;21.33;12.10;;;;;;;;;;4992319;28;20050;-71
2023/01/27 14:27:35;;;;;;;21.63;11.40;;;;;;;;;;4992428;28;20048;-71
2023/01/27 14:30:22;;;;;;;48.55;15.23;;;;;;;;;;4992471;28;20510;-72
2023/01/27 14:33:03;;;;;;;26.00;11.35;;;;;;;;;;4993211;28;20445;-73
2023/01/27 14:35:44;;;;;;;22.50;13.48;;;;;;;;;;5007315;28;20124;-73
2023/01/27 14:38:42;;;;;;;22.42;11.18;;;;;;;;;;4990125;28;20058;-72
2023/01/27 14:41:13;;;;;;;23.85;11.50;;;;;;;;;;4990547;28;20487;-73
2023/01/27 14:44:04;;;;;;;37.55;12.85;;;;;;;;;;4991712;28;20418;-72
2023/01/27 14:46:35;;;;;;;26.67;11.80;;;;;;;;;;4980724;28;20030;-72
2023/01/27 14:49:16;;;;;;;22.60;12.02;;;;;;;;;;4988435;28;20034;-73
2023/01/27 14:51:53;;;;;;;24.60;11.65;;;;;;;;;;4991801;28;20034;-72
2023/01/27 14:54:48;;;;;;;20.77;11.38;;;;;;;;;;4972098;28;20081;-73
2023/01/27 14:57:26;;;;;;;20.30;11.18;;;;;;;;;;4990645;28;20053;-73
2023/01/27 15:00:13;;;;;;;16.48;11.50;;;;;;;;;;4992176;28;20455;-72
2023/01/27 15:03:27;;;;;;;21.38;12.98;;;;;;;;;;4986072;28;20038;-72
2023/01/27 15:06:19;;;;;;;33.42;13.50;;;;;;;;;;4981806;28;20057;-73
2023/01/27 15:08:56;;;;;;;27.70;13.15;;;;;;;;;;4980466;28;20054;-73
2023/01/27 15:11:34;;;;;;;47.17;14.57;;;;;;;;;;4986167;28;20030;-73
2023/01/27 15:14:32;;;;;;;26.33;12.38;;;;;;;;;;4994610;28;20038;-73
2023/01/27 15:17:21;;;;;;;26.92;13.50;;;;;;;;;;5004123;28;20500;-73
2023/01/27 15:20:14;;;;;;;41.55;16.73;;;;;;;;;;4980355;28;20031;-74
2023/01/27 15:23:00;;;;;;;53.50;16.75;;;;;;;;;;4989644;28;20445;-73